Time;durP1;ratioP1;P1;durP2;ratioP2;P2;SDS_P1;SDS_P2;PMS_P1;PMS_P2;Temp;Humidity;BMP_temperature;BMP_pressure;BME280_temperature;BME280_humidity;BME280_pressure;Samples;Min_cycle;Max_cycle;Signal;HPM_P1;HPM_P2
2022/04/16 00:02:23;;;;;;;20.20;18.07;;;;;;;;;;5068911;28;21037;-88
2022/04/16 00:05:29;;;;;;;20.73;18.27;;;;;;;;;;5062320;28;20432;-88
2022/04/16 00:08:35;;;;;;;22.30;16.20;;;;;;;;;;5066373;28;20452;-87
2022/04/16 00:11:44;;;;;;;17.47;15.70;;;;;;;;;;5067000;28;20432;-88
2022/04/16 00:14:50;;;;;;;22.25;15.95;;;;;;;;;;5065624;28;20901;-87
2022/04/16 00:17:56;;;;;;;20.37;16.70;;;;;;;;;;5061875;28;20708;-88
2022/04/16 00:21:04;;;;;;;20.17;17.20;;;;;;;;;;5064809;28;20978;-88
2022/04/16 00:24:07;;;;;;;22.33;18.47;;;;;;;;;;5058064;28;20965;-88
2022/04/16 00:27:13;;;;;;;20.50;17.03;;;;;;;;;;5073324;28;20836;-88
2022/04/16 00:30:22;;;;;;;21.08;18.88;;;;;;;;;;5071218;28;20453;-87
2022/04/16 00:33:28;;;;;;;27.23;17.60;;;;;;;;;;5074565;28;20190;-89
2022/04/16 00:36:34;;;;;;;19.77;17.67;;;;;;;;;;5073741;28;20429;-88
2022/04/16 00:39:40;;;;;;;25.70;20.37;;;;;;;;;;5077843;28;20515;-88
2022/04/16 00:42:45;;;;;;;23.67;19.35;;;;;;;;;;5065374;28;20405;-88
2022/04/16 00:45:52;;;;;;;23.42;18.50;;;;;;;;;;5062136;28;20860;-88
2022/04/16 00:48:57;;;;;;;21.60;18.63;;;;;;;;;;5057404;28;20705;-88
2022/04/16 00:52:03;;;;;;;23.43;18.93;;;;;;;;;;5056061;28;20191;-88
2022/04/16 00:55:09;;;;;;;26.40;20.38;;;;;;;;;;5067290;28;20429;-88
2022/04/16 00:58:15;;;;;;;24.00;19.10;;;;;;;;;;5077739;28;20190;-88
2022/04/16 01:01:21;;;;;;;22.27;19.87;;;;;;;;;;5064129;28;20198;-88
2022/04/16 01:04:30;;;;;;;21.80;18.87;;;;;;;;;;5060612;28;20481;-88
2022/04/16 01:07:36;;;;;;;25.63;20.57;;;;;;;;;;5056455;28;20529;-88
2022/04/16 01:10:41;;;;;;;25.80;22.07;;;;;;;;;;5055676;28;20434;-88
2022/04/16 01:13:48;;;;;;;24.63;19.33;;;;;;;;;;5062385;28;20425;-88
2022/04/16 01:16:53;;;;;;;31.90;21.43;;;;;;;;;;5067982;28;20421;-87
2022/04/16 01:19:59;;;;;;;23.27;19.52;;;;;;;;;;5060236;28;20519;-88
2022/04/16 01:23:05;;;;;;;24.50;20.10;;;;;;;;;;5065877;28;20201;-87
2022/04/16 01:26:10;;;;;;;26.00;21.27;;;;;;;;;;5058788;28;20536;-88
2022/04/16 01:29:17;;;;;;;27.77;20.13;;;;;;;;;;5056342;28;20448;-88
2022/04/16 01:32:23;;;;;;;23.07;20.27;;;;;;;;;;5060312;28;20428;-88
2022/04/16 01:35:28;;;;;;;23.25;19.30;;;;;;;;;;5058309;28;20433;-89
2022/04/16 01:38:34;;;;;;;26.77;21.67;;;;;;;;;;5069173;28;20212;-92
2022/04/16 01:41:40;;;;;;;27.37;21.00;;;;;;;;;;5068647;28;20428;-92
2022/04/16 01:44:45;;;;;;;25.92;21.55;;;;;;;;;;5064600;28;20485;-92
2022/04/16 01:47:51;;;;;;;32.50;22.80;;;;;;;;;;5065860;28;20226;-92
2022/04/16 01:51:05;;;;;;;35.07;22.37;;;;;;;;;;5057291;28;20482;-92
2022/04/16 01:54:09;;;;;;;25.47;20.90;;;;;;;;;;5054381;28;20427;-91
2022/04/16 01:57:18;;;;;;;29.27;23.20;;;;;;;;;;5064795;28;20428;-91
2022/04/16 02:00:23;;;;;;;27.20;22.40;;;;;;;;;;5051442;28;20801;-91
2022/04/16 02:03:27;;;;;;;27.33;20.83;;;;;;;;;;5057807;28;20844;-90
2022/04/16 02:06:33;;;;;;;23.80;20.60;;;;;;;;;;5057844;28;20453;-90
2022/04/16 02:09:38;;;;;;;30.70;23.17;;;;;;;;;;5063764;28;20440;-92
2022/04/16 02:12:44;;;;;;;23.90;19.90;;;;;;;;;;5052619;28;20425;-90
2022/04/16 02:15:51;;;;;;;25.37;20.77;;;;;;;;;;5053322;28;20491;-91
2022/04/16 02:18:56;;;;;;;26.10;21.67;;;;;;;;;;5060447;28;20429;-91
2022/04/16 02:22:02;;;;;;;32.63;22.83;;;;;;;;;;5064506;28;20425;-91
2022/04/16 02:25:08;;;;;;;30.13;22.48;;;;;;;;;;5065181;28;20559;-94
2022/04/16 02:28:14;;;;;;;26.45;22.25;;;;;;;;;;5075140;28;20233;-89
2022/04/16 02:31:20;;;;;;;25.35;21.58;;;;;;;;;;5061525;28;20213;-89
2022/04/16 02:34:25;;;;;;;28.93;22.80;;;;;;;;;;5049521;28;20199;-88
2022/04/16 02:37:31;;;;;;;29.30;21.37;;;;;;;;;;5065715;28;20429;-88
2022/04/16 02:40:37;;;;;;;30.70;22.63;;;;;;;;;;5067364;28;20415;-88
2022/04/16 02:43:43;;;;;;;29.50;22.90;;;;;;;;;;5061197;28;20189;-89
2022/04/16 02:47:08;;;;;;;26.77;22.17;;;;;;;;;;5052255;28;20505;-89
2022/04/16 02:50:13;;;;;;;28.50;22.07;;;;;;;;;;5053088;28;20457;-89
2022/04/16 02:53:19;;;;;;;27.10;21.87;;;;;;;;;;5060023;28;21141;-89
2022/04/16 02:56:25;;;;;;;32.42;24.35;;;;;;;;;;5058222;28;20795;-89
2022/04/16 02:59:31;;;;;;;29.23;22.17;;;;;;;;;;5056898;28;20217;-89
2022/04/16 03:02:37;;;;;;;26.60;21.63;;;;;;;;;;5053885;28;21085;-88
2022/04/16 03:05:42;;;;;;;28.63;22.80;;;;;;;;;;5055272;28;20464;-88
2022/04/16 03:08:48;;;;;;;31.53;24.77;;;;;;;;;;5059733;28;20873;-88
2022/04/16 03:11:54;;;;;;;29.23;22.77;;;;;;;;;;5054346;28;20952;-89
2022/04/16 03:18:05;;;;;;;29.08;23.65;;;;;;;;;;5055885;28;20512;-89
2022/04/16 03:21:11;;;;;;;27.27;23.65;;;;;;;;;;5064979;28;20228;-88
2022/04/16 03:24:16;;;;;;;38.05;25.40;;;;;;;;;;5051471;28;20225;-88
2022/04/16 03:27:22;;;;;;;31.17;24.70;;;;;;;;;;5060007;28;20222;-88
2022/04/16 03:30:28;;;;;;;37.57;23.97;;;;;;;;;;5058819;28;20441;-88
2022/04/16 03:33:34;;;;;;;36.00;24.13;;;;;;;;;;5061934;28;20550;-93
2022/04/16 03:36:40;;;;;;;33.70;23.10;;;;;;;;;;5063116;28;20742;-94
2022/04/16 03:39:46;;;;;;;33.75;22.80;;;;;;;;;;5059086;28;20434;-93
2022/04/16 03:42:51;;;;;;;30.95;25.80;;;;;;;;;;5072650;28;20266;-94
2022/04/16 03:45:58;;;;;;;34.58;23.38;;;;;;;;;;5065468;28;20717;-93
2022/04/16 03:49:03;;;;;;;34.97;25.15;;;;;;;;;;5061448;28;20190;-93
2022/04/16 03:52:09;;;;;;;34.35;25.50;;;;;;;;;;5056622;28;20182;-92
2022/04/16 04:01:24;;;;;;;29.92;23.65;;;;;;;;;;5063366;28;20608;-92
2022/04/16 04:04:30;;;;;;;33.73;22.83;;;;;;;;;;5067079;28;20205;-93
2022/04/16 04:07:36;;;;;;;42.53;25.87;;;;;;;;;;5069987;28;20451;-92
2022/04/16 04:10:42;;;;;;;31.45;23.95;;;;;;;;;;5056611;28;20422;-93
2022/04/16 04:13:48;;;;;;;36.97;25.30;;;;;;;;;;5057069;28;20851;-93
2022/04/16 04:16:54;;;;;;;33.43;24.53;;;;;;;;;;5063102;28;20268;-93
2022/04/16 04:20:00;;;;;;;37.47;25.20;;;;;;;;;;5061252;28;20419;-93
2022/04/16 04:23:06;;;;;;;41.47;24.67;;;;;;;;;;5055456;28;20190;-93
2022/04/16 04:26:12;;;;;;;37.10;25.97;;;;;;;;;;5061015;28;20434;-93
2022/04/16 04:29:17;;;;;;;34.45;26.60;;;;;;;;;;5059171;28;20636;-93
2022/04/16 04:32:23;;;;;;;32.58;22.90;;;;;;;;;;5057749;28;20187;-93
2022/04/16 04:35:29;;;;;;;35.97;27.20;;;;;;;;;;5064564;28;20755;-92
2022/04/16 04:38:38;;;;;;;35.77;26.00;;;;;;;;;;5066957;28;20191;-92
2022/04/16 04:41:43;;;;;;;35.87;26.47;;;;;;;;;;5055319;28;20430;-93
2022/04/16 04:44:47;;;;;;;35.70;25.48;;;;;;;;;;5070771;28;20782;-92
2022/04/16 04:47:53;;;;;;;40.25;26.55;;;;;;;;;;5066459;28;20214;-93
2022/04/16 04:50:58;;;;;;;33.33;24.77;;;;;;;;;;5063511;28;20214;-94
2022/04/16 04:54:04;;;;;;;33.42;24.05;;;;;;;;;;5071593;28;20273;-94
2022/04/16 04:57:10;;;;;;;36.17;26.57;;;;;;;;;;5057704;28;20195;-94
2022/04/16 05:00:17;;;;;;;33.22;26.67;;;;;;;;;;5054942;28;20436;-94
2022/04/16 05:03:22;;;;;;;35.70;25.20;;;;;;;;;;5077077;28;20269;-94
2022/04/16 05:06:28;;;;;;;37.10;26.52;;;;;;;;;;5083768;28;20403;-94
2022/04/16 05:09:34;;;;;;;44.42;27.75;;;;;;;;;;5069143;28;20198;-93
2022/04/16 05:12:39;;;;;;;30.80;23.27;;;;;;;;;;5079627;28;20186;-93
2022/04/16 05:15:45;;;;;;;34.05;24.50;;;;;;;;;;5079635;28;20258;-93
2022/04/16 05:18:51;;;;;;;33.25;25.75;;;;;;;;;;5067670;28;20221;-93
2022/04/16 05:21:57;;;;;;;34.13;25.45;;;;;;;;;;5088652;28;20186;-95
2022/04/16 05:25:03;;;;;;;35.30;25.65;;;;;;;;;;5065033;28;20217;-91
2022/04/16 05:28:09;;;;;;;29.83;20.90;;;;;;;;;;5070894;28;20236;-94
2022/04/16 05:31:15;;;;;;;31.80;22.80;;;;;;;;;;5076775;28;20281;-88
2022/04/16 05:34:21;;;;;;;36.30;25.25;;;;;;;;;;5066797;28;20191;-93
2022/04/16 05:37:26;;;;;;;31.63;24.50;;;;;;;;;;4720013;28;9999715;-93
2022/04/16 05:40:32;;;;;;;32.85;26.02;;;;;;;;;;5074154;28;20190;-94
2022/04/16 05:43:38;;;;;;;31.17;25.60;;;;;;;;;;5072725;28;20182;-94
2022/04/16 05:46:44;;;;;;;33.77;22.67;;;;;;;;;;5068412;28;20226;-94
2022/04/16 05:49:50;;;;;;;31.23;26.37;;;;;;;;;;5065547;28;20953;-91
2022/04/16 05:52:56;;;;;;;26.10;21.20;;;;;;;;;;5056979;28;20457;-94
2022/04/16 05:56:01;;;;;;;23.13;20.67;;;;;;;;;;5063888;28;20467;-93
2022/04/16 05:59:07;;;;;;;26.77;22.43;;;;;;;;;;5061157;28;20477;-94
2022/04/16 06:02:13;;;;;;;24.37;20.67;;;;;;;;;;5060735;28;20432;-94
2022/04/16 06:05:21;;;;;;;22.93;20.30;;;;;;;;;;5074300;28;20456;-93
2022/04/16 06:08:25;;;;;;;24.00;21.40;;;;;;;;;;5068658;28;20514;-91
2022/04/16 06:11:32;;;;;;;25.87;23.07;;;;;;;;;;5059467;28;20413;-94
2022/04/16 06:16:53;;;;;;;25.77;22.17;;;;;;;;;;5758072;22;20487;-87
2022/04/16 06:19:19;;;;;;;24.50;21.93;;;;;;;;;;5049537;28;20428;-88
2022/04/16 06:21:45;;;;;;;23.40;19.50;;;;;;;;;;5038145;28;20463;-90
2022/04/16 06:24:11;;;;;;;24.80;22.30;;;;;;;;;;5052524;28;20451;-87
2022/04/16 06:26:37;;;;;;;26.23;23.43;;;;;;;;;;5036303;28;20509;-90
2022/04/16 06:29:07;;;;;;;28.23;22.87;;;;;;;;;;5047910;28;20460;-87
2022/04/16 06:31:33;;;;;;;28.23;23.17;;;;;;;;;;5059173;28;20714;-89
2022/04/16 06:33:59;;;;;;;27.87;23.00;;;;;;;;;;5038872;28;20410;-88
2022/04/16 06:36:25;;;;;;;25.73;23.03;;;;;;;;;;5044322;28;20527;-90
2022/04/16 06:38:51;;;;;;;25.10;22.40;;;;;;;;;;5057035;28;20497;-89
2022/04/16 06:41:17;;;;;;;24.80;22.30;;;;;;;;;;5059046;28;20943;-89
2022/04/16 06:43:43;;;;;;;24.80;22.17;;;;;;;;;;5053545;28;20507;-88
2022/04/16 06:46:09;;;;;;;24.60;22.00;;;;;;;;;;5044466;28;20464;-90
2022/04/16 06:48:35;;;;;;;23.10;20.70;;;;;;;;;;5060089;28;20526;-82
2022/04/16 06:51:01;;;;;;;24.07;20.97;;;;;;;;;;5065209;28;20433;-84
2022/04/16 06:53:27;;;;;;;23.13;20.93;;;;;;;;;;5048759;28;20458;-81
2022/04/16 06:55:53;;;;;;;22.33;20.07;;;;;;;;;;5054028;28;20933;-81
2022/04/16 06:58:19;;;;;;;21.43;18.77;;;;;;;;;;5046446;28;20446;-82
2022/04/16 07:00:46;;;;;;;20.87;18.97;;;;;;;;;;5034319;28;20433;-87
2022/04/16 07:30:04;;;;;;;17.83;16.17;;;;;;;;;;4912421;26;20502;-90
2022/04/16 07:32:33;;;;;;;18.97;17.10;;;;;;;;;;4964500;29;20416;-88
2022/04/16 07:35:00;;;;;;;19.23;17.33;;;;;;;;;;4989266;28;20526;-91
2022/04/16 07:37:26;;;;;;;18.93;17.23;;;;;;;;;;4966778;28;20434;-90
2022/04/16 07:39:57;;;;;;;18.80;17.10;;;;;;;;;;4972359;28;20497;-91
2022/04/16 07:42:27;;;;;;;18.47;16.77;;;;;;;;;;4965739;29;20430;-91
2022/04/16 07:44:53;;;;;;;19.70;17.80;;;;;;;;;;4964209;28;20506;-83
2022/04/16 07:47:23;;;;;;;17.63;16.03;;;;;;;;;;4977826;28;20508;-87
2022/04/16 07:53:07;;;;;;;19.50;17.67;;;;;;;;;;4963340;28;20431;-92
2022/04/16 07:55:36;;;;;;;17.23;15.70;;;;;;;;;;4980923;28;20436;-89
2022/04/16 07:58:09;;;;;;;17.60;16.00;;;;;;;;;;4982674;28;20442;-93
2022/04/16 08:06:04;;;;;;;16.23;14.80;;;;;;;;;;5006072;28;20592;-89
2022/04/16 08:09:10;;;;;;;16.73;15.30;;;;;;;;;;5002424;28;20539;-88
2022/04/16 08:12:16;;;;;;;14.97;13.57;;;;;;;;;;4999499;28;20424;-87
2022/04/16 08:15:22;;;;;;;15.77;14.37;;;;;;;;;;4996699;28;20459;-89
2022/04/16 08:18:27;;;;;;;13.53;12.43;;;;;;;;;;4993304;28;20443;-89
2022/04/16 08:21:34;;;;;;;14.53;13.33;;;;;;;;;;4300283;28;10000744;-87
2022/04/16 08:24:41;;;;;;;14.63;13.43;;;;;;;;;;4985115;28;20192;-88
2022/04/16 08:27:45;;;;;;;14.60;13.50;;;;;;;;;;4991169;28;20479;-90
2022/04/16 08:30:51;;;;;;;13.90;12.60;;;;;;;;;;4998090;28;20480;-89
2022/04/16 08:33:57;;;;;;;15.40;14.10;;;;;;;;;;5001721;28;20470;-90
2022/04/16 08:37:03;;;;;;;14.43;13.23;;;;;;;;;;5000164;28;20432;-91
2022/04/16 08:40:09;;;;;;;15.80;14.40;;;;;;;;;;4997635;28;20443;-88
2022/04/16 08:43:17;;;;;;;14.00;12.80;;;;;;;;;;5001347;28;20567;-89
2022/04/16 08:46:23;;;;;;;15.23;13.80;;;;;;;;;;4987549;28;20951;-90
2022/04/16 08:49:28;;;;;;;14.80;13.37;;;;;;;;;;4992830;28;20629;-88
2022/04/16 08:52:37;;;;;;;13.00;11.80;;;;;;;;;;4999479;28;20435;-92
2022/04/16 08:55:40;;;;;;;17.37;11.07;;;;;;;;;;4987934;28;20496;-92
2022/04/16 08:59:01;;;;;;;11.77;10.90;;;;;;;;;;4986391;28;20476;-92
2022/04/16 09:02:07;;;;;;;11.47;10.67;;;;;;;;;;4995012;28;20934;-92
2022/04/16 09:05:26;;;;;;;10.70;10.00;;;;;;;;;;5000512;28;20451;-93
2022/04/16 09:08:31;;;;;;;9.30;8.70;;;;;;;;;;4999426;28;20543;-91
2022/04/16 09:11:37;;;;;;;8.80;8.40;;;;;;;;;;4994491;28;20432;-88
2022/04/16 09:14:52;;;;;;;12.00;11.00;;;;;;;;;;4988898;28;20498;-92
2022/04/16 09:17:59;;;;;;;11.50;10.50;;;;;;;;;;4996373;28;20476;-92
2022/04/16 09:21:12;;;;;;;11.53;10.47;;;;;;;;;;5001697;28;20450;-90
2022/04/16 09:24:10;;;;;;;9.90;9.03;;;;;;;;;;4996097;28;20455;-95
2022/04/16 09:27:16;;;;;;;9.40;8.70;;;;;;;;;;4999825;28;20488;-91
2022/04/16 09:30:27;;;;;;;8.37;7.50;;;;;;;;;;5004206;28;20427;-92
2022/04/16 09:33:28;;;;;;;8.07;7.67;;;;;;;;;;4996993;28;21000;-93
2022/04/16 09:36:35;;;;;;;7.13;6.73;;;;;;;;;;4993368;28;20597;-92
2022/04/16 09:39:45;;;;;;;6.43;6.07;;;;;;;;;;5001346;28;20515;-90
2022/04/16 09:42:53;;;;;;;8.90;7.03;;;;;;;;;;4997934;28;20511;-89
2022/04/16 09:46:04;;;;;;;7.13;6.73;;;;;;;;;;5001728;28;20444;-89
2022/04/16 09:49:12;;;;;;;6.87;6.57;;;;;;;;;;5012562;28;20444;-88
2022/04/16 09:52:25;;;;;;;8.93;8.43;;;;;;;;;;5002484;28;20432;-91
2022/04/16 09:55:27;;;;;;;9.53;8.97;;;;;;;;;;4997165;28;20428;-89
2022/04/16 09:58:32;;;;;;;10.30;9.70;;;;;;;;;;4996143;28;20475;-91
2022/04/16 10:01:46;;;;;;;8.10;7.60;;;;;;;;;;4998925;28;20421;-89
2022/04/16 10:04:47;;;;;;;9.20;8.60;;;;;;;;;;4995170;28;20483;-90
2022/04/16 10:07:53;;;;;;;12.80;8.73;;;;;;;;;;5004232;28;20553;-93
2022/04/16 10:11:03;;;;;;;9.33;8.47;;;;;;;;;;5005142;28;20424;-90
2022/04/16 10:14:09;;;;;;;10.23;9.40;;;;;;;;;;5009712;28;20440;-90
2022/04/16 10:17:15;;;;;;;8.93;8.20;;;;;;;;;;4989034;28;20468;-92
2022/04/16 10:20:27;;;;;;;9.77;8.97;;;;;;;;;;4991044;28;20428;-90
2022/04/16 10:23:33;;;;;;;8.10;7.67;;;;;;;;;;4998531;28;20440;-92
2022/04/16 10:26:39;;;;;;;7.50;7.10;;;;;;;;;;4994742;28;20519;-91
2022/04/16 10:29:46;;;;;;;7.87;7.47;;;;;;;;;;4991866;28;20436;-90
2022/04/16 10:33:00;;;;;;;8.17;7.67;;;;;;;;;;4997872;28;20439;-90
2022/04/16 10:38:58;;;;;;;9.00;8.50;;;;;;;;;;4984315;28;20449;-94
2022/04/16 10:42:16;;;;;;;9.17;8.67;;;;;;;;;;5005268;28;20603;-94
2022/04/16 10:45:31;;;;;;;9.10;8.27;;;;;;;;;;4994829;28;20449;-92
2022/04/16 10:48:35;;;;;;;8.03;7.60;;;;;;;;;;4988491;28;20480;-86
2022/04/16 10:51:42;;;;;;;9.40;8.50;;;;;;;;;;4996262;28;20452;-93
2022/04/16 10:58:27;;;;;;;;;;;;;;;;;;;;;
2022/04/16 11:01:26;;;;;;;9.37;8.67;;;;;;;;;;5002982;28;20441;-90
2022/04/16 11:06:58;;;;;;;8.07;7.57;;;;;;;;;;5044732;28;20486;-78
2022/04/16 11:09:47;;;;;;;8.10;7.40;;;;;;;;;;5031181;28;20435;-86
2022/04/16 11:12:21;;;;;;;8.20;7.70;;;;;;;;;;5007144;28;20739;-88
2022/04/16 11:14:54;;;;;;;8.60;8.10;;;;;;;;;;5024157;28;20439;-83
2022/04/16 11:17:27;;;;;;;7.77;7.30;;;;;;;;;;5045321;28;20420;-83
2022/04/16 11:20:27;;;;;;;8.57;7.87;;;;;;;;;;5042277;28;20422;-85
2022/04/16 11:22:56;;;;;;;7.77;7.37;;;;;;;;;;5016144;28;20517;-87
2022/04/16 11:25:23;;;;;;;7.97;7.57;;;;;;;;;;5028228;28;20529;-86
2022/04/16 11:36:08;;;;;;;7.00;6.70;;;;;;;;;;5038371;28;20461;-83
2022/04/16 11:38:39;;;;;;;7.90;7.27;;;;;;;;;;5043459;28;20500;-85
2022/04/16 11:41:06;;;;;;;6.60;6.00;;;;;;;;;;5040136;28;20433;-82
2022/04/16 11:43:33;;;;;;;7.60;7.20;;;;;;;;;;5028054;28;20427;-85
2022/04/16 11:46:24;;;;;;;7.27;6.77;;;;;;;;;;5045631;28;20435;-89
2022/04/16 11:48:50;;;;;;;8.70;8.10;;;;;;;;;;5057998;28;20485;-80
2022/04/16 11:51:28;;;;;;;6.40;6.10;;;;;;;;;;5068792;28;20488;-83
2022/04/16 11:54:28;;;;;;;7.10;6.60;;;;;;;;;;5049697;28;20433;-89
2022/04/16 11:57:19;;;;;;;6.30;6.00;;;;;;;;;;5034930;28;20437;-81
2022/04/16 11:59:55;;;;;;;8.03;7.53;;;;;;;;;;5037621;28;20434;-87
2022/04/16 12:02:54;;;;;;;7.47;6.97;;;;;;;;;;5039784;28;20429;-89
2022/04/16 12:05:27;;;;;;;6.80;6.50;;;;;;;;;;5010301;28;20460;-86
2022/04/16 12:08:04;;;;;;;6.90;6.60;;;;;;;;;;5057446;28;20473;-84
2022/04/16 12:10:36;;;;;;;7.20;6.80;;;;;;;;;;5057695;28;20428;-84
2022/04/16 12:13:09;;;;;;;6.40;6.10;;;;;;;;;;5054015;28;20445;-84
2022/04/16 12:15:39;;;;;;;7.07;6.67;;;;;;;;;;5056151;28;20413;-83
2022/04/16 12:18:11;;;;;;;6.97;6.67;;;;;;;;;;5041192;28;20437;-87
2022/04/16 12:20:52;;;;;;;6.73;6.23;;;;;;;;;;5035529;28;20465;-88
2022/04/16 12:23:31;;;;;;;7.03;6.63;;;;;;;;;;5009347;23;20508;-86
2022/04/16 12:26:05;;;;;;;6.97;6.67;;;;;;;;;;4989052;28;20456;-86
2022/04/16 12:28:39;;;;;;;6.30;5.90;;;;;;;;;;4969609;28;20477;-85
2022/04/16 12:31:29;;;;;;;6.37;6.00;;;;;;;;;;4975083;28;20416;-88
2022/04/16 12:34:15;;;;;;;5.60;5.27;;;;;;;;;;4963042;29;20509;-88
2022/04/16 12:36:50;;;;;;;5.93;5.63;;;;;;;;;;4948748;29;20583;-87
2022/04/16 12:39:17;;;;;;;6.00;5.70;;;;;;;;;;4954188;29;20469;-82
2022/04/16 12:44:42;;;;;;;5.57;5.30;;;;;;;;;;4968097;29;20931;-86
2022/04/16 12:47:08;;;;;;;4.77;4.57;;;;;;;;;;4964910;28;21018;-84
2022/04/16 12:49:34;;;;;;;5.00;4.90;;;;;;;;;;4981387;28;20515;-84
2022/04/16 12:52:02;;;;;;;6.43;6.20;;;;;;;;;;4961240;28;20429;-86
2022/04/16 12:54:29;;;;;;;5.00;4.80;;;;;;;;;;4973077;28;20778;-85
2022/04/16 12:56:58;;;;;;;5.53;5.13;;;;;;;;;;4961295;28;20463;-86
2022/04/16 12:59:24;;;;;;;5.53;5.13;;;;;;;;;;4957254;28;20480;-86
2022/04/16 13:01:50;;;;;;;4.90;4.80;;;;;;;;;;4938705;29;21014;-86
2022/04/16 13:04:20;;;;;;;4.20;4.10;;;;;;;;;;4955010;29;20414;-83
2022/04/16 13:06:46;;;;;;;5.17;4.97;;;;;;;;;;4939099;28;20504;-85
2022/04/16 13:09:12;;;;;;;5.20;4.70;;;;;;;;;;4962525;28;20445;-87
2022/04/16 13:11:38;;;;;;;5.20;5.03;;;;;;;;;;4942070;28;20540;-86
2022/04/16 13:14:04;;;;;;;4.47;4.17;;;;;;;;;;4954792;28;20444;-85
2022/04/16 13:16:30;;;;;;;3.90;3.77;;;;;;;;;;4959767;28;20776;-85
2022/04/16 13:18:56;;;;;;;4.10;3.93;;;;;;;;;;4972598;28;20955;-86
2022/04/16 13:21:22;;;;;;;3.80;3.70;;;;;;;;;;4952585;28;20449;-86
2022/04/16 13:23:49;;;;;;;4.00;3.90;;;;;;;;;;4952367;28;20444;-87
2022/04/16 13:26:20;;;;;;;4.57;4.47;;;;;;;;;;4942476;28;20481;-85
2022/04/16 13:28:48;;;;;;;4.27;4.10;;;;;;;;;;4946745;28;20429;-87
2022/04/16 13:31:26;;;;;;;3.40;3.30;;;;;;;;;;4953157;28;20861;-87
2022/04/16 13:34:04;;;;;;;;;;;;;;;;;;;;;
2022/04/16 13:36:31;;;;;;;3.10;3.00;;;;;;;;;;4980666;28;20544;-86
2022/04/16 13:38:58;;;;;;;4.23;4.00;;;;;;;;;;4964105;28;21002;-87
2022/04/16 13:41:39;;;;;;;3.40;3.27;;;;;;;;;;4970474;28;20429;-87
2022/04/16 13:44:06;;;;;;;3.37;3.30;;;;;;;;;;4957941;28;20449;-86
2022/04/16 13:46:33;;;;;;;3.03;2.93;;;;;;;;;;4960076;28;20437;-87
2022/04/16 13:48:59;;;;;;;3.73;3.50;;;;;;;;;;4963084;28;20584;-83
2022/04/16 13:51:25;;;;;;;3.40;3.30;;;;;;;;;;4620073;28;10000175;-84
2022/04/16 13:53:52;;;;;;;3.00;3.00;;;;;;;;;;4958693;28;20273;-89
2022/04/16 13:58:56;;;;;;;3.07;2.93;;;;;;;;;;4734192;23;20556;-90
2022/04/16 14:02:03;;;;;;;3.97;3.67;;;;;;;;;;5005223;28;20425;-87
2022/04/16 14:07:56;;;;;;;2.20;2.20;;;;;;;;;;4962800;28;20921;-87
2022/04/16 14:11:00;;;;;;;3.63;3.47;;;;;;;;;;4965725;28;20476;-92
2022/04/16 14:14:06;;;;;;;2.20;1.93;;;;;;;;;;4947932;28;20662;-91
2022/04/16 14:17:15;;;;;;;2.30;2.20;;;;;;;;;;4955465;29;20414;-89
2022/04/16 14:20:18;;;;;;;2.40;2.40;;;;;;;;;;4955879;28;20525;-89
2022/04/16 14:23:26;;;;;;;2.40;2.30;;;;;;;;;;4967352;28;20425;-89
2022/04/16 14:26:33;;;;;;;2.40;2.40;;;;;;;;;;4962748;28;20429;-91
2022/04/16 14:28:59;;;;;;;2.10;2.00;;;;;;;;;;4958896;28;20695;-83
2022/04/16 14:31:25;;;;;;;2.07;2.07;;;;;;;;;;4968748;29;20434;-90
2022/04/16 14:34:11;;;;;;;3.03;2.93;;;;;;;;;;4957335;28;20451;-90
2022/04/16 14:37:17;;;;;;;2.63;2.43;;;;;;;;;;4983032;28;20490;-90
2022/04/16 14:40:05;;;;;;;6.23;2.93;;;;;;;;;;4974215;28;20441;-91
2022/04/16 14:42:51;;;;;;;2.33;2.23;;;;;;;;;;4947971;29;20948;-91
2022/04/16 14:45:58;;;;;;;2.20;2.20;;;;;;;;;;4965379;28;20426;-89
2022/04/16 14:49:05;;;;;;;1.83;1.83;;;;;;;;;;4975339;28;20449;-91
2022/04/16 14:52:11;;;;;;;2.20;2.10;;;;;;;;;;4962439;28;20833;-93
2022/04/16 14:55:17;;;;;;;2.03;2.03;;;;;;;;;;4958553;28;20504;-94
2022/04/16 14:58:22;;;;;;;3.17;2.53;;;;;;;;;;4974153;28;20425;-93
2022/04/16 15:01:35;;;;;;;1.60;1.60;;;;;;;;;;4978521;28;20919;-85
2022/04/16 15:04:44;;;;;;;2.30;2.20;;;;;;;;;;4976537;28;20460;-94
2022/04/16 15:07:30;;;;;;;2.67;2.47;;;;;;;;;;5010958;23;20515;-77
2022/04/16 15:09:56;;;;;;;2.13;2.13;;;;;;;;;;4969036;28;20766;-79
2022/04/16 15:12:24;;;;;;;1.93;1.93;;;;;;;;;;4969354;28;20710;-78
2022/04/16 15:14:50;;;;;;;2.40;2.27;;;;;;;;;;4969405;28;20948;-78
2022/04/16 15:17:16;;;;;;;2.27;2.27;;;;;;;;;;4965425;28;20809;-78
2022/04/16 15:19:42;;;;;;;2.80;2.70;;;;;;;;;;4986686;28;20408;-80
2022/04/16 15:22:08;;;;;;;2.73;2.63;;;;;;;;;;4966790;28;20426;-79
2022/04/16 15:24:34;;;;;;;1.70;1.67;;;;;;;;;;4975104;28;20771;-79
2022/04/16 15:27:00;;;;;;;2.00;2.00;;;;;;;;;;4983516;28;20472;-78
2022/04/16 15:29:27;;;;;;;3.03;1.77;;;;;;;;;;4986502;28;20488;-79
2022/04/16 15:31:53;;;;;;;1.60;1.60;;;;;;;;;;4965442;28;20452;-79
2022/04/16 15:34:19;;;;;;;2.37;2.30;;;;;;;;;;4984254;28;20446;-78
2022/04/16 15:36:48;;;;;;;1.83;1.80;;;;;;;;;;4967288;28;20425;-78
2022/04/16 15:39:14;;;;;;;2.70;2.70;;;;;;;;;;4966053;28;20829;-79
2022/04/16 15:41:40;;;;;;;2.10;2.10;;;;;;;;;;4981901;28;20425;-78
2022/04/16 15:44:06;;;;;;;1.73;1.73;;;;;;;;;;4965421;28;20441;-79
2022/04/16 15:46:33;;;;;;;1.60;1.60;;;;;;;;;;4985667;28;20443;-80
2022/04/16 15:49:00;;;;;;;1.73;1.73;;;;;;;;;;4950712;28;20449;-79
2022/04/16 15:51:27;;;;;;;2.20;2.20;;;;;;;;;;4985655;28;20427;-82
2022/04/16 15:53:53;;;;;;;2.70;2.50;;;;;;;;;;4965427;28;20425;-82
2022/04/16 15:56:19;;;;;;;1.63;1.63;;;;;;;;;;4985352;28;20417;-80
2022/04/16 15:58:45;;;;;;;2.03;2.03;;;;;;;;;;4963800;28;20903;-80
2022/04/16 16:01:11;;;;;;;1.90;1.73;;;;;;;;;;4969082;28;20516;-83
2022/04/16 16:03:40;;;;;;;2.70;2.60;;;;;;;;;;4966110;28;20521;-80
2022/04/16 16:06:07;;;;;;;2.43;1.93;;;;;;;;;;4987362;28;20416;-81
2022/04/16 16:08:33;;;;;;;2.83;2.83;;;;;;;;;;4965650;28;20528;-82
2022/04/16 16:11:00;;;;;;;2.37;2.27;;;;;;;;;;4985348;28;20425;-82
2022/04/16 16:13:26;;;;;;;1.87;1.80;;;;;;;;;;4955213;28;20785;-80
2022/04/16 16:15:52;;;;;;;2.93;1.80;;;;;;;;;;4968004;28;20428;-82
2022/04/16 16:18:18;;;;;;;2.17;2.17;;;;;;;;;;4963603;28;20524;-80
2022/04/16 16:20:44;;;;;;;2.50;2.40;;;;;;;;;;4971357;28;20560;-82
2022/04/16 16:23:10;;;;;;;4.37;4.17;;;;;;;;;;4975759;28;20514;-79
2022/04/16 16:25:36;;;;;;;2.00;1.90;;;;;;;;;;4970039;28;20428;-81
2022/04/16 16:28:02;;;;;;;2.17;2.10;;;;;;;;;;4958528;28;20472;-80
2022/04/16 16:30:29;;;;;;;2.53;2.33;;;;;;;;;;4971605;28;20432;-80
2022/04/16 16:32:57;;;;;;;2.37;2.17;;;;;;;;;;4976965;28;20482;-82
2022/04/16 16:35:23;;;;;;;2.40;2.20;;;;;;;;;;4969045;28;20459;-81
2022/04/16 16:37:49;;;;;;;2.20;2.20;;;;;;;;;;4970612;28;20433;-81
2022/04/16 16:40:16;;;;;;;2.00;2.00;;;;;;;;;;4971933;28;20694;-81
2022/04/16 16:42:56;;;;;;;5.20;4.73;;;;;;;;;;4967427;28;20433;-81
2022/04/16 16:45:22;;;;;;;2.33;2.33;;;;;;;;;;4969105;28;20417;-83
2022/04/16 16:47:48;;;;;;;2.73;2.73;;;;;;;;;;4969730;28;20490;-81
2022/04/16 16:50:14;;;;;;;3.90;3.80;;;;;;;;;;4972012;28;20462;-83
2022/04/16 16:52:40;;;;;;;2.63;2.60;;;;;;;;;;4973804;28;20436;-82
2022/04/16 16:55:07;;;;;;;2.73;2.73;;;;;;;;;;4989234;28;20417;-81
2022/04/16 16:57:41;;;;;;;2.83;2.73;;;;;;;;;;4960206;28;20440;-83
2022/04/16 17:00:07;;;;;;;3.93;3.63;;;;;;;;;;4974238;28;20436;-82
2022/04/16 17:05:18;;;;;;;3.30;3.10;;;;;;;;;;4974338;28;20441;-82
2022/04/16 17:07:45;;;;;;;2.97;2.77;;;;;;;;;;4983038;28;20514;-82
2022/04/16 17:10:13;;;;;;;4.63;3.30;;;;;;;;;;4956001;28;20529;-81
2022/04/16 17:12:42;;;;;;;3.27;3.07;;;;;;;;;;4355853;28;10001718;-83
2022/04/16 17:20:37;;;;;;;3.40;3.20;;;;;;;;;;4966811;28;20428;-82
2022/04/16 17:23:03;;;;;;;2.50;2.50;;;;;;;;;;4971878;28;20437;-82
2022/04/16 17:25:31;;;;;;;2.57;2.57;;;;;;;;;;4968825;28;20577;-82
2022/04/16 17:27:58;;;;;;;3.07;2.63;;;;;;;;;;4966096;28;20928;-83
2022/04/16 17:30:24;;;;;;;3.43;3.30;;;;;;;;;;4966040;28;20436;-82
2022/04/16 17:32:50;;;;;;;3.33;3.20;;;;;;;;;;4945668;28;20457;-81
2022/04/16 17:35:17;;;;;;;3.60;2.93;;;;;;;;;;4948950;28;20811;-83
2022/04/16 17:37:55;;;;;;;3.40;3.30;;;;;;;;;;4964434;28;20443;-83
2022/04/16 17:40:22;;;;;;;2.87;2.60;;;;;;;;;;4968486;28;20424;-83
2022/04/16 17:42:48;;;;;;;3.10;3.00;;;;;;;;;;4954848;28;20437;-83
2022/04/16 17:45:14;;;;;;;3.10;3.00;;;;;;;;;;4976447;28;20937;-82
2022/04/16 17:47:42;;;;;;;17.40;16.03;;;;;;;;;;4950888;28;20472;-82
2022/04/16 17:50:09;;;;;;;3.67;3.57;;;;;;;;;;4988690;28;20851;-81
2022/04/16 17:52:35;;;;;;;4.40;3.10;;;;;;;;;;4957602;28;20437;-81
2022/04/16 17:55:01;;;;;;;4.63;4.33;;;;;;;;;;4968637;28;20426;-81
2022/04/16 17:57:27;;;;;;;12.93;11.80;;;;;;;;;;4974198;28;20752;-81
2022/04/16 17:59:53;;;;;;;7.10;5.27;;;;;;;;;;4939897;28;20437;-81
2022/04/16 18:02:21;;;;;;;3.70;3.60;;;;;;;;;;4972889;28;21037;-81